createdAt,value
2018-06-11T00:01:31.714Z,96.90
2018-06-11T00:04:04.316Z,96.80
2018-06-11T00:06:36.745Z,96.70
2018-06-11T00:09:09.133Z,96.90
2018-06-11T00:11:41.676Z,96.80
2018-06-11T00:14:14.111Z,96.90
2018-06-11T00:16:46.527Z,96.70
2018-06-11T00:19:19.606Z,96.70
2018-06-11T00:24:24.719Z,97.00
2018-06-11T00:26:57.173Z,96.70
2018-06-11T00:29:29.584Z,96.70
2018-06-11T00:34:34.446Z,96.80
2018-06-11T00:37:06.842Z,96.40
2018-06-11T00:39:39.320Z,96.40
2018-06-11T00:42:11.727Z,96.40
2018-06-11T00:44:45.432Z,96.30
2018-06-11T00:47:17.872Z,96.30
2018-06-11T00:49:50.443Z,96.30
2018-06-11T00:52:22.844Z,96.30
2018-06-11T00:54:55.496Z,96.30
2018-06-11T00:57:27.867Z,96.40
2018-06-11T01:00:01.595Z,96.20
2018-06-11T01:02:34.373Z,96.50
2018-06-11T01:05:06.755Z,96.30
2018-06-11T01:07:39.161Z,96.40
2018-06-11T01:10:11.662Z,96.40
2018-06-11T01:12:44.077Z,96.30
2018-06-11T01:15:16.482Z,96.40
2018-06-11T01:17:49.185Z,96.10
2018-06-11T01:20:21.660Z,96.10
2018-06-11T01:22:54.035Z,95.90
2018-06-11T01:25:26.508Z,95.90
2018-06-11T01:27:58.927Z,95.90
2018-06-11T01:30:31.680Z,95.90
2018-06-11T01:33:04.450Z,95.90
2018-06-11T01:35:36.859Z,95.90
2018-06-11T01:38:09.276Z,96.30
2018-06-11T01:40:41.756Z,96.10
2018-06-11T01:43:14.545Z,96.20
2018-06-11T01:45:46.955Z,96.10
2018-06-11T01:48:19.375Z,96.10
2018-06-11T01:50:51.748Z,96.10
2018-06-11T01:53:25.253Z,96.00
2018-06-11T01:55:57.642Z,96.00
2018-06-11T01:58:30.068Z,96.10
2018-06-11T02:01:02.887Z,96.20
2018-06-11T02:03:35.261Z,96.20
2018-06-11T02:06:07.661Z,96.40
2018-06-11T02:08:40.772Z,96.30
2018-06-11T02:11:13.194Z,96.10
2018-06-11T02:13:45.666Z,96.50
2018-06-11T02:16:18.063Z,96.20
2018-06-11T02:18:50.508Z,96.20
2018-06-11T02:21:22.914Z,96.20
2018-06-11T02:23:55.552Z,96.10
2018-06-11T02:26:27.962Z,96.00
2018-06-11T02:29:00.398Z,96.10
2018-06-11T02:31:32.899Z,96.20
2018-06-11T02:34:05.282Z,96.10
2018-06-11T02:36:37.705Z,96.30
2018-06-11T02:39:10.109Z,96.30
2018-06-11T02:41:42.921Z,96.40
2018-06-11T02:44:15.458Z,96.50
2018-06-11T02:46:47.840Z,96.60
2018-06-11T02:49:20.372Z,96.50
2018-06-11T02:51:52.992Z,96.70
2018-06-11T02:54:25.627Z,96.40
2018-06-11T02:56:58.249Z,96.60
2018-06-11T02:59:30.754Z,99.90
2018-06-11T03:02:03.315Z,96.30
2018-06-11T03:07:08.219Z,96.70
2018-06-11T03:09:40.874Z,97.00
2018-06-11T03:12:13.594Z,96.70
2018-06-11T03:14:46.330Z,96.50
2018-06-11T03:17:18.750Z,96.30
2018-06-11T03:19:51.182Z,96.30
2018-06-11T03:22:23.781Z,96.30
2018-06-11T03:24:56.195Z,96.30
2018-06-11T03:27:28.809Z,96.30
2018-06-11T03:30:01.196Z,96.00
2018-06-11T03:32:33.598Z,96.10
2018-06-11T03:35:06.086Z,96.10
2018-06-11T03:40:10.941Z,96.00
2018-06-11T03:42:43.417Z,96.10
2018-06-11T03:45:15.838Z,96.00
2018-06-11T03:47:48.262Z,96.10
2018-06-11T03:52:53.255Z,96.00
2018-06-11T03:55:25.783Z,95.80
2018-06-11T03:57:58.901Z,96.00
2018-06-11T04:00:31.673Z,95.90
2018-06-11T04:03:04.239Z,95.80
2018-06-11T04:05:36.815Z,95.70
2018-06-11T04:08:09.227Z,95.80
2018-06-11T04:10:41.783Z,95.80
2018-06-11T04:13:14.248Z,95.80
2018-06-11T04:15:46.697Z,95.90
2018-06-11T04:18:19.182Z,96.00
2018-06-11T04:20:51.845Z,95.80
2018-06-11T04:23:24.391Z,96.00
2018-06-11T04:25:56.837Z,96.40
2018-06-11T04:28:29.420Z,95.80
2018-06-11T04:31:01.830Z,95.70
2018-06-11T04:33:34.231Z,95.70
2018-06-11T04:36:07.723Z,96.10
2018-06-11T04:38:41.079Z,95.70
2018-06-11T04:41:13.519Z,95.80
2018-06-11T04:43:46.065Z,95.90
2018-06-11T04:46:18.578Z,95.60
2018-06-11T04:48:51.086Z,95.30
2018-06-11T04:51:23.552Z,95.50
2018-06-11T04:53:56.050Z,95.60
2018-06-11T04:56:28.842Z,95.50
2018-06-11T04:59:02.040Z,95.30
2018-06-11T05:01:34.486Z,95.20
2018-06-11T05:04:06.991Z,95.30
2018-06-11T05:06:39.769Z,95.30
2018-06-11T05:09:12.169Z,95.20
2018-06-11T05:11:44.642Z,95.10
2018-06-11T05:14:17.083Z,95.30
2018-06-11T05:16:49.773Z,95.20
2018-06-11T05:19:22.156Z,95.10
2018-06-11T05:21:54.813Z,95.30
2018-06-11T05:24:28.501Z,95.50
2018-06-11T05:27:00.988Z,95.30
2018-06-11T05:29:33.529Z,95.20
2018-06-11T05:37:11.545Z,95.30
2018-06-11T05:39:44.053Z,95.20
2018-06-11T05:42:16.518Z,95.50
2018-06-11T05:44:49.640Z,95.20
2018-06-11T05:47:22.247Z,95.20
2018-06-11T05:49:54.677Z,95.50
2018-06-11T05:52:27.133Z,95.50
2018-06-11T05:54:59.638Z,95.40
2018-06-11T05:57:32.097Z,95.30
2018-06-11T06:00:04.749Z,95.10
2018-06-11T06:05:10.872Z,95.20
2018-06-11T06:07:43.333Z,94.90
2018-06-11T06:10:16.878Z,95.10
2018-06-11T06:15:22.002Z,95.00
2018-06-11T06:17:54.483Z,98.40
2018-06-11T06:20:26.974Z,94.90
2018-06-11T06:25:32.223Z,94.70
2018-06-11T06:28:05.834Z,94.80
2018-06-11T06:30:38.442Z,94.70
2018-06-11T06:33:11.089Z,94.60
2018-06-11T06:35:44.397Z,94.60
2018-06-11T06:40:50.065Z,94.60
2018-06-11T06:43:23.430Z,93.60
2018-06-11T06:48:28.710Z,93.10
2018-06-11T06:51:02.355Z,93.60
2018-06-11T06:53:35.853Z,93.70
2018-06-11T06:56:08.499Z,93.50
2018-06-11T06:58:41.091Z,93.80
2018-06-11T07:01:14.308Z,93.70
2018-06-11T07:03:48.117Z,93.70
2018-06-11T07:06:21.033Z,93.80
2018-06-11T07:08:53.867Z,93.70
2018-06-11T07:11:26.814Z,93.70
2018-06-11T07:13:59.636Z,93.40
2018-06-11T07:16:32.599Z,93.30
2018-06-11T07:19:06.063Z,93.30
2018-06-11T07:21:39.442Z,93.20
2018-06-11T07:24:11.929Z,93.10
2018-06-11T07:26:45.569Z,92.50
2018-06-11T07:29:18.535Z,92.50
2018-06-11T07:31:51.430Z,92.20
2018-06-11T07:34:24.236Z,92.00
2018-06-11T07:36:57.070Z,91.40
2018-06-11T07:39:30.167Z,91.50
2018-06-11T07:42:03.244Z,91.90
2018-06-11T07:44:36.555Z,92.80
2018-06-11T07:47:09.684Z,91.30
2018-06-11T07:49:42.467Z,91.40
2018-06-11T07:52:15.380Z,91.00
2018-06-11T07:54:48.012Z,91.30
2018-06-11T07:57:21.328Z,91.00
2018-06-11T07:59:54.145Z,91.20
2018-06-11T08:02:27.475Z,91.30
2018-06-11T08:07:33.295Z,89.80
2018-06-11T08:10:05.873Z,89.60
2018-06-11T08:12:38.607Z,90.40
2018-06-11T08:15:11.414Z,90.70
2018-06-11T08:17:44.477Z,90.80
2018-06-11T08:20:18.021Z,90.60
2018-06-11T08:22:51.877Z,90.60
2018-06-11T08:25:25.097Z,90.00
2018-06-11T08:27:57.567Z,88.30
2018-06-11T08:30:30.232Z,87.80
2018-06-11T08:33:03.617Z,88.90
2018-06-11T08:35:36.141Z,89.40
2018-06-11T08:38:08.929Z,89.20
2018-06-11T08:40:41.469Z,90.00
2018-06-11T08:43:14.374Z,90.20
2018-06-11T08:48:20.013Z,90.20
2018-06-11T08:53:26.932Z,90.10
2018-06-11T08:55:59.644Z,90.00
2018-06-11T08:58:32.340Z,89.10
2018-06-11T09:01:04.968Z,88.00
2018-06-11T09:03:38.481Z,87.30
2018-06-11T09:06:11.429Z,87.60
2018-06-11T09:08:44.248Z,87.70
2018-06-11T09:11:16.957Z,87.90
2018-06-11T09:13:49.476Z,88.10
2018-06-11T09:16:21.897Z,88.30
2018-06-11T09:18:55.797Z,87.90
2018-06-11T09:21:28.387Z,87.90
2018-06-11T09:24:02.214Z,87.70
2018-06-11T09:26:35.524Z,87.00
2018-06-11T09:29:08.446Z,86.10
2018-06-11T09:31:41.152Z,85.40
2018-06-11T09:34:13.753Z,85.90
2018-06-11T09:36:46.796Z,85.00
2018-06-11T09:39:19.965Z,84.30
2018-06-11T09:41:52.643Z,82.70
2018-06-11T09:44:26.134Z,82.40
2018-06-11T09:46:58.987Z,83.40
2018-06-11T09:49:32.024Z,82.20
2018-06-11T09:52:04.904Z,80.50
2018-06-11T09:54:38.202Z,80.80
2018-06-11T09:57:10.979Z,80.90
2018-06-11T09:59:43.806Z,81.90
2018-06-11T10:02:16.899Z,82.10
2018-06-11T10:04:49.714Z,81.00
2018-06-11T10:07:25.116Z,78.50
2018-06-11T10:10:00.668Z,78.70
2018-06-11T10:12:36.347Z,78.00
2018-06-11T10:15:11.544Z,77.40
2018-06-11T10:17:44.202Z,77.60
2018-06-11T10:20:26.617Z,75.80
2018-06-11T10:23:00.111Z,74.70
2018-06-11T10:25:32.862Z,75.80
2018-06-11T10:28:05.657Z,74.80
2018-06-11T10:30:38.277Z,73.60
2018-06-11T10:33:11.724Z,72.00
2018-06-11T10:35:44.145Z,72.20
2018-06-11T10:38:16.612Z,72.50
2018-06-11T10:43:21.773Z,71.90
2018-06-11T10:45:54.208Z,71.60
2018-06-11T10:48:26.641Z,72.30
2018-06-11T10:50:59.138Z,70.30
2018-06-11T10:53:32.673Z,70.40
2018-06-11T10:56:05.165Z,69.70
2018-06-11T10:58:37.680Z,68.50
2018-06-11T11:01:10.091Z,68.40
2018-06-11T11:03:42.546Z,69.30
2018-06-11T11:06:15.018Z,69.70
2018-06-11T11:08:47.722Z,68.30
2018-06-11T11:11:20.315Z,67.10
2018-06-11T11:13:52.747Z,68.10
2018-06-11T11:16:25.560Z,66.70
2018-06-11T11:18:57.974Z,67.10
2018-06-11T11:21:30.694Z,65.90
2018-06-11T11:24:03.309Z,65.00
2018-06-11T11:26:36.041Z,65.40
2018-06-11T11:29:08.447Z,65.20
2018-06-11T11:31:41.543Z,63.10
2018-06-11T11:34:13.966Z,63.30
2018-06-11T11:36:46.430Z,64.90
2018-06-11T11:39:18.860Z,63.50
2018-06-11T11:41:51.270Z,63.90
2018-06-11T11:44:23.702Z,64.00
2018-06-11T11:46:56.323Z,63.50
2018-06-11T11:49:28.705Z,62.60
2018-06-11T11:52:01.303Z,63.10
2018-06-11T11:57:06.183Z,62.30
2018-06-11T11:59:38.631Z,62.70
2018-06-11T12:02:11.129Z,62.80
2018-06-11T12:04:43.551Z,62.40
2018-06-11T12:07:16.099Z,61.50
2018-06-11T12:09:48.541Z,61.40
2018-06-11T12:12:21.104Z,61.60
2018-06-11T12:14:53.510Z,61.70
2018-06-11T12:17:26.330Z,61.10
2018-06-11T12:19:58.838Z,61.40
2018-06-11T12:22:31.303Z,60.10
2018-06-11T12:25:03.829Z,59.70
2018-06-11T12:27:36.371Z,60.80
2018-06-11T12:30:08.839Z,59.90
2018-06-11T12:32:41.550Z,60.20
2018-06-11T12:35:13.958Z,59.60
2018-06-11T12:37:46.576Z,59.10
2018-06-11T12:40:19.028Z,59.40
2018-06-11T12:42:51.518Z,60.10
2018-06-11T12:45:23.914Z,59.90
2018-06-11T12:47:56.368Z,59.30
2018-06-11T12:50:28.815Z,59.70
2018-06-11T12:53:01.287Z,58.60
2018-06-11T12:55:33.736Z,59.50
2018-06-11T12:58:06.238Z,59.20
2018-06-11T13:00:38.786Z,57.70
2018-06-11T13:03:11.240Z,58.80
2018-06-11T13:05:43.689Z,57.90
2018-06-11T13:08:16.234Z,58.00
2018-06-11T13:10:48.773Z,57.70
2018-06-11T13:13:21.221Z,57.50
2018-06-11T13:15:53.796Z,57.60
2018-06-11T13:18:26.331Z,56.90
2018-06-11T13:20:59.079Z,57.50
2018-06-11T13:23:31.547Z,57.90
2018-06-11T13:26:04.268Z,57.20
2018-06-11T13:28:36.733Z,56.70
2018-06-11T13:31:09.178Z,56.50
2018-06-11T13:33:41.681Z,55.90
2018-06-11T13:36:14.083Z,56.20
2018-06-11T13:38:47.425Z,57.10
2018-06-11T13:41:20.726Z,57.00
2018-06-11T13:43:53.858Z,56.70
2018-06-11T13:46:26.519Z,56.90
2018-06-11T13:48:58.902Z,56.20
2018-06-11T13:51:31.615Z,55.70
2018-06-11T13:54:04.221Z,56.10
2018-06-11T13:56:36.735Z,56.50
2018-06-11T13:59:09.209Z,54.00
2018-06-11T14:01:41.719Z,53.50
2018-06-11T14:04:15.080Z,53.90
2018-06-11T14:06:47.571Z,53.90
2018-06-11T14:09:20.056Z,52.90
2018-06-11T14:11:52.447Z,52.80
2018-06-11T14:14:25.015Z,53.30
2018-06-11T14:16:57.530Z,54.40
2018-06-11T14:19:29.933Z,54.60
2018-06-11T14:22:02.685Z,55.30
2018-06-11T14:24:35.318Z,55.70
2018-06-11T14:27:08.998Z,55.30
2018-06-11T14:29:41.419Z,55.10
2018-06-11T14:32:13.853Z,54.70
2018-06-11T14:34:46.390Z,51.40
2018-06-11T14:37:18.823Z,51.30
2018-06-11T14:39:51.459Z,51.90
2018-06-11T14:42:23.856Z,52.20
2018-06-11T14:44:56.279Z,52.70
2018-06-11T14:47:28.934Z,52.70
2018-06-11T14:50:01.431Z,53.00
2018-06-11T14:52:33.919Z,52.60
2018-06-11T14:55:07.299Z,52.10
2018-06-11T15:00:14.978Z,52.30
2018-06-11T15:02:47.515Z,53.30
2018-06-11T15:05:20.856Z,53.90
2018-06-11T15:07:54.312Z,54.10
2018-06-11T15:10:27.225Z,52.30
2018-06-11T15:13:00.372Z,51.30
2018-06-11T15:15:33.603Z,50.00
2018-06-11T15:18:06.071Z,51.60
2018-06-11T15:20:39.065Z,53.90
2018-06-11T15:25:44.213Z,55.10
2018-06-11T15:28:16.661Z,54.40
2018-06-11T15:30:49.170Z,54.20
2018-06-11T15:33:21.638Z,55.00
2018-06-11T15:36:01.362Z,54.80
2018-06-11T15:38:35.976Z,54.50
2018-06-11T15:41:12.674Z,54.40
2018-06-11T15:43:45.088Z,54.20
2018-06-11T15:46:19.780Z,54.30
2018-06-11T15:48:52.611Z,53.90
2018-06-11T15:51:25.107Z,53.70
2018-06-11T15:53:57.935Z,54.20
2018-06-11T15:56:30.417Z,54.50
2018-06-11T15:59:03.028Z,54.30
2018-06-11T16:01:35.521Z,53.90
2018-06-11T16:04:07.951Z,53.70
2018-06-11T16:06:40.725Z,53.00
2018-06-11T16:09:13.156Z,53.90
2018-06-11T16:11:46.005Z,53.10
2018-06-11T16:14:18.415Z,53.30
2018-06-11T16:16:50.963Z,53.10
2018-06-11T16:19:23.383Z,53.70
2018-06-11T16:21:55.861Z,53.50
2018-06-11T16:24:28.304Z,53.20
2018-06-11T16:27:01.099Z,53.20
2018-06-11T16:29:33.487Z,53.20
2018-06-11T16:32:06.085Z,53.50
2018-06-11T16:34:38.463Z,52.80
2018-06-11T16:37:10.964Z,52.80
2018-06-11T16:39:43.368Z,53.60
2018-06-11T16:42:15.930Z,53.80
2018-06-11T16:44:48.345Z,53.10
2018-06-11T16:47:20.975Z,53.60
2018-06-11T16:49:53.430Z,53.60
2018-06-11T16:52:25.920Z,54.20
2018-06-11T16:54:58.464Z,53.80
2018-06-11T16:57:30.996Z,53.60
2018-06-11T17:00:03.468Z,53.30
2018-06-11T17:02:36.071Z,53.60
2018-06-11T17:05:08.491Z,52.80
2018-06-11T17:07:40.911Z,53.20
2018-06-11T17:10:13.366Z,53.50
2018-06-11T17:12:46.197Z,53.40
2018-06-11T17:15:18.598Z,53.50
2018-06-11T17:20:24.847Z,54.10
2018-06-11T17:22:57.383Z,54.00
2018-06-11T17:25:29.857Z,53.40
2018-06-11T17:28:02.963Z,54.10
2018-06-11T17:30:35.490Z,54.20
2018-06-11T17:33:07.925Z,54.20
2018-06-11T17:35:40.510Z,53.90
2018-06-11T17:38:13.048Z,53.90
2018-06-11T17:40:45.487Z,54.20
2018-06-11T17:45:50.791Z,54.10
2018-06-11T17:48:23.186Z,54.70
2018-06-11T17:50:55.666Z,54.60
2018-06-11T17:53:28.099Z,54.70
2018-06-11T17:56:00.558Z,54.90
2018-06-11T17:58:33.420Z,55.00
2018-06-11T18:01:05.964Z,54.60
2018-06-11T18:03:38.483Z,54.70
2018-06-11T18:06:11.042Z,54.20
2018-06-11T18:08:43.512Z,54.40
2018-06-11T18:11:17.663Z,54.80
2018-06-11T18:13:51.253Z,55.00
2018-06-11T18:16:24.069Z,55.10
2018-06-11T18:21:29.270Z,55.20
2018-06-11T18:24:02.167Z,55.70
2018-06-11T18:26:35.237Z,55.40
2018-06-11T18:29:07.897Z,55.70
2018-06-11T18:31:40.692Z,56.00
2018-06-11T18:34:13.511Z,55.90
2018-06-11T18:36:46.568Z,56.00
2018-06-11T18:39:19.708Z,56.10
2018-06-11T18:41:53.249Z,56.20
2018-06-11T18:44:25.908Z,56.60
2018-06-11T18:46:58.315Z,56.70
2018-06-11T18:49:30.847Z,56.90
2018-06-11T18:52:03.391Z,57.00
2018-06-11T18:54:37.059Z,57.30
2018-06-11T18:57:09.707Z,57.70
2018-06-11T18:59:42.278Z,58.00
2018-06-11T19:02:15.025Z,58.00
2018-06-11T19:04:47.447Z,58.00
2018-06-11T19:07:20.241Z,58.30
2018-06-11T19:09:53.683Z,58.50
2018-06-11T19:12:26.309Z,58.70
2018-06-11T19:14:59.079Z,58.70
2018-06-11T19:17:32.561Z,58.90
2018-06-11T19:20:05.508Z,59.70
2018-06-11T19:22:37.985Z,58.80
2018-06-11T19:25:10.465Z,59.10
2018-06-11T19:27:42.917Z,59.20
2018-06-11T19:30:15.416Z,59.30
2018-06-11T19:32:48.178Z,59.50
2018-06-11T19:35:20.711Z,59.50
2018-06-11T19:37:53.127Z,59.60
2018-06-11T19:40:27.648Z,59.80
2018-06-11T19:43:00.142Z,59.90
2018-06-11T19:45:32.610Z,59.90
2018-06-11T19:48:05.111Z,59.90
2018-06-11T19:50:37.521Z,60.20
2018-06-11T19:53:10.534Z,60.30
2018-06-11T19:55:42.988Z,60.60
2018-06-11T19:58:15.793Z,60.50
2018-06-11T20:00:48.324Z,60.60
2018-06-11T20:03:20.830Z,60.50
2018-06-11T20:05:53.282Z,61.40
2018-06-11T20:08:26.840Z,60.60
2018-06-11T20:10:59.278Z,60.80
2018-06-11T20:13:31.751Z,61.00
2018-06-11T20:16:04.227Z,61.50
2018-06-11T20:18:36.740Z,61.50
2018-06-11T20:21:09.658Z,61.20
2018-06-11T20:23:42.176Z,61.60
2018-06-11T20:26:14.621Z,61.60
2018-06-11T20:28:47.191Z,61.60
2018-06-11T20:31:19.667Z,62.00
2018-06-11T20:33:52.165Z,62.10
2018-06-11T20:36:24.618Z,62.30
2018-06-11T20:38:57.294Z,62.50
2018-06-11T20:41:31.048Z,62.70
2018-06-11T20:44:03.622Z,62.90
2018-06-11T20:46:36.116Z,63.30
2018-06-11T20:49:08.949Z,64.80
2018-06-11T20:51:41.498Z,64.80
2018-06-11T20:54:14.056Z,66.00
2018-06-11T20:56:46.482Z,66.20
2018-06-11T20:59:19.155Z,66.30
2018-06-11T21:01:51.652Z,66.40
2018-06-11T21:04:24.145Z,66.10
2018-06-11T21:06:56.564Z,66.70
2018-06-11T21:09:29.133Z,66.80
2018-06-11T21:12:01.568Z,66.80
2018-06-11T21:14:35.548Z,67.20
2018-06-11T21:17:08.076Z,67.30
2018-06-11T21:19:40.525Z,67.10
2018-06-11T21:22:13.073Z,67.40
2018-06-11T21:24:45.535Z,67.70
2018-06-11T21:27:17.978Z,67.90
2018-06-11T21:29:50.396Z,67.80
2018-06-11T21:32:22.933Z,68.10
2018-06-11T21:34:55.385Z,68.50
2018-06-11T21:37:28.220Z,68.70
2018-06-11T21:40:00.641Z,74.70
2018-06-11T21:42:33.138Z,68.70
2018-06-11T21:45:05.601Z,69.40
2018-06-11T21:47:38.241Z,69.40
2018-06-11T21:50:10.661Z,69.40
2018-06-11T21:52:43.169Z,69.40
2018-06-11T21:55:15.717Z,69.80
2018-06-11T21:57:48.183Z,69.70
2018-06-11T22:00:20.609Z,69.30
2018-06-11T22:02:53.766Z,70.10
2018-06-11T22:05:26.329Z,72.70
2018-06-11T22:07:58.925Z,70.70
2018-06-11T22:10:31.360Z,70.70
2018-06-11T22:13:03.819Z,71.00
2018-06-11T22:18:08.781Z,82.80
2018-06-11T22:23:13.788Z,71.40
2018-06-11T22:25:46.710Z,72.30
2018-06-11T22:28:19.115Z,72.70
2018-06-11T22:30:51.621Z,72.80
2018-06-11T22:33:24.074Z,73.10
2018-06-11T22:38:29.007Z,73.10
2018-06-11T22:41:01.409Z,73.80
2018-06-11T22:43:33.952Z,74.10
2018-06-11T22:46:06.354Z,74.60
2018-06-11T22:48:38.863Z,74.80
2018-06-11T22:51:11.308Z,74.80
2018-06-11T22:53:43.758Z,75.50
2018-06-11T22:58:48.843Z,75.30
2018-06-11T23:01:21.355Z,76.10
2018-06-11T23:06:18.082Z,76.50
2018-06-11T23:08:50.732Z,76.40
2018-06-11T23:11:23.293Z,76.60
2018-06-11T23:13:55.777Z,76.50
2018-06-11T23:16:28.243Z,76.30
2018-06-11T23:19:00.808Z,76.70
2018-06-11T23:21:33.323Z,76.70
2018-06-11T23:24:06.792Z,77.00
2018-06-11T23:26:39.798Z,76.80
2018-06-11T23:29:12.302Z,77.10
2018-06-11T23:31:44.813Z,77.30
2018-06-11T23:34:17.319Z,77.50
2018-06-11T23:36:50.034Z,77.90
2018-06-11T23:39:22.453Z,77.80
2018-06-11T23:41:54.950Z,78.00
2018-06-11T23:44:27.531Z,77.90
2018-06-11T23:47:00.034Z,77.90
2018-06-11T23:49:32.724Z,77.90
2018-06-11T23:52:05.247Z,78.50
2018-06-11T23:54:37.649Z,78.50
2018-06-11T23:57:10.110Z,78.50
2018-06-11T23:59:42.650Z,78.50
